Monument, Oregon
Current Conditions -  °F | °C
As of 12:15 AM on Monday 24 Nov 2014 (Local Time) from KGCD Reporting Station
Overcast Overcast  
Wind Chill: 41°   Ceiling: 3600
Heat Index: 41°   Visibility: 10mi
Dew Point: 31°   Wind: 3mph
Humidity: 69%   Direction: 210°SSW
Pressure: 30.3"   Gusts: NA
Location:  44.82°N, 119.42°W
Report Text: KGCD 240815Z AUTO 21003KT 10SM BKN036 OVC046 05/00 A3030 RMK AO2 T00501003
Loading
Personal Weather Stations






























Interactive Weather Map New forecast layout! Learn more

10-Day Weather Forecast

Advertisements
Track Severe Weather on mobile